Time;durP1;ratioP1;P1;durP2;ratioP2;P2;SDS_P1;SDS_P2;PMS_P1;PMS_P2;Temp;Humidity;BMP_temperature;BMP_pressure;BME280_temperature;BME280_humidity;BME280_pressure;Samples;Min_cycle;Max_cycle;Signal;HPM_P1;HPM_P2
2020/12/31 00:01:30;;;;;;;8.00;5.20;;;;;;;9.06;62.80;95586.63;1787964;79;21112;-58
2020/12/31 00:03:58;;;;;;;8.23;5.67;;;;;;;9.09;62.79;95580.41;1820040;78;21597;-58
2020/12/31 00:06:25;;;;;;;11.05;5.62;;;;;;;9.12;62.64;95584.04;1821326;78;21468;-58
2020/12/31 00:08:53;;;;;;;8.98;5.87;;;;;;;9.14;62.63;95586.02;1844165;77;21069;-58
2020/12/31 00:11:21;;;;;;;7.97;5.17;;;;;;;9.15;62.52;95579.44;1823759;77;21198;-58
2020/12/31 00:13:48;;;;;;;9.43;5.85;;;;;;;9.16;62.43;95573.32;1821312;78;22009;-58
2020/12/31 00:16:17;;;;;;;13.30;7.23;;;;;;;9.17;62.39;95589.66;1818732;78;21056;-58
2020/12/31 00:18:44;;;;;;;17.87;10.38;;;;;;;9.17;62.41;95603.90;1828095;77;21469;-58
2020/12/31 00:21:12;;;;;;;29.82;16.95;;;;;;;9.16;62.36;95613.89;1849135;77;21093;-58
2020/12/31 00:23:39;;;;;;;36.58;19.62;;;;;;;9.14;62.15;95620.96;1848712;77;21801;-58
2020/12/31 00:26:07;;;;;;;37.13;19.87;;;;;;;9.13;62.12;95627.09;1824152;77;21478;-58
2020/12/31 00:28:35;;;;;;;31.52;18.20;;;;;;;9.07;62.23;95627.10;1815788;79;21438;-58
2020/12/31 00:31:02;;;;;;;23.80;15.55;;;;;;;9.01;62.31;95631.02;1829855;77;21577;-57
2020/12/31 00:33:30;;;;;;;25.75;14.50;;;;;;;8.86;62.65;95632.69;1833931;77;21105;-57
2020/12/31 00:35:58;;;;;;;21.42;12.95;;;;;;;8.80;63.01;95634.01;1821559;78;21203;-57
2020/12/31 00:38:25;;;;;;;23.98;13.88;;;;;;;8.84;63.15;95640.57;1837294;77;21057;-57
2020/12/31 00:40:53;;;;;;;20.90;12.07;;;;;;;8.88;63.01;95647.16;1830863;77;21054;-57
2020/12/31 00:43:22;;;;;;;16.27;10.03;;;;;;;8.91;62.86;95645.59;1852421;77;21101;-57
2020/12/31 00:45:49;;;;;;;34.85;20.92;;;;;;;8.92;62.84;95637.39;1852534;77;21101;-57
2020/12/31 00:48:17;;;;;;;53.85;30.57;;;;;;;8.93;62.39;95635.97;1835109;77;21201;-57
2020/12/31 00:50:45;;;;;;;53.15;30.75;;;;;;;8.90;61.52;95638.80;1818845;78;21905;-57
2020/12/31 00:53:14;;;;;;;55.08;32.45;;;;;;;8.74;61.50;95646.12;1836224;77;21057;-57
2020/12/31 00:55:41;;;;;;;48.80;30.88;;;;;;;8.60;61.70;95648.47;1808131;78;21132;-57
2020/12/31 00:58:10;;;;;;;56.13;32.05;;;;;;;8.51;61.54;95646.62;1791802;78;22531;-57
2020/12/31 01:00:38;;;;;;;50.85;30.57;;;;;;;8.40;61.60;95662.91;1818917;78;21362;-57
2020/12/31 01:03:07;;;;;;;49.60;29.72;;;;;;;8.23;61.78;95668.89;1832743;77;21133;-57
2020/12/31 01:05:34;;;;;;;47.80;30.20;;;;;;;8.13;62.08;95677.48;1852374;77;21447;-57
2020/12/31 01:08:02;;;;;;;43.85;29.00;;;;;;;8.02;62.24;95667.94;1850412;77;21109;-57
2020/12/31 01:10:30;;;;;;;46.02;29.10;;;;;;;7.87;62.52;95672.48;1830318;77;21089;-57
2020/12/31 01:12:58;;;;;;;42.27;28.85;;;;;;;7.71;62.84;95680.53;1819381;78;21369;-56
2020/12/31 01:15:25;;;;;;;44.50;28.27;;;;;;;7.64;63.27;95682.75;1819257;78;21117;-57
2020/12/31 01:17:53;;;;;;;51.73;30.10;;;;;;;7.65;63.48;95677.14;1820863;77;21056;-57
2020/12/31 01:20:23;;;;;;;55.30;32.15;;;;;;;7.65;63.59;95665.05;1831653;77;21108;-59
2020/12/31 01:22:53;;;;;;;60.25;34.88;;;;;;;7.64;63.57;95669.84;1852449;77;21112;-58
2020/12/31 01:25:21;;;;;;;56.60;35.98;;;;;;;7.63;63.67;95679.83;1841101;77;21128;-57
2020/12/31 01:27:49;;;;;;;58.08;35.38;;;;;;;7.63;63.54;95685.44;1845567;77;21148;-57
2020/12/31 01:30:17;;;;;;;55.78;34.83;;;;;;;7.62;63.59;95685.10;1847540;77;21178;-57
2020/12/31 01:32:45;;;;;;;55.38;33.78;;;;;;;7.60;63.56;95692.95;1829097;77;21044;-57
2020/12/31 01:35:12;;;;;;;54.38;32.90;;;;;;;7.48;63.64;95705.00;1852451;77;21092;-57
2020/12/31 01:37:40;;;;;;;49.03;31.65;;;;;;;7.32;64.08;95707.04;1851947;77;21322;-57
2020/12/31 01:40:08;;;;;;;42.15;26.50;;;;;;;7.03;64.60;95709.92;1843445;77;21481;-57
2020/12/31 01:42:39;;;;;;;43.20;26.30;;;;;;;6.67;65.81;95709.44;1823188;77;21231;-57
2020/12/31 01:45:08;;;;;;;40.30;25.37;;;;;;;6.34;66.90;95713.39;1823761;77;21038;-57
2020/12/31 01:47:35;;;;;;;42.03;26.00;;;;;;;6.14;67.74;95712.98;1819404;78;21037;-57
2020/12/31 01:50:04;;;;;;;48.33;28.20;;;;;;;6.07;68.21;95715.14;1821469;78;21611;-57
2020/12/31 01:52:36;;;;;;;;;;;;;;;6.12;68.47;95723.86;1822875;77;21148;-58
2020/12/31 01:55:02;;;;;;;44.13;26.12;;;;;;;6.20;68.53;95719.02;1830280;77;20244;-57
2020/12/31 01:57:30;;;;;;;42.35;26.30;;;;;;;6.32;68.52;95713.50;1758202;80;21137;-57
2020/12/31 01:59:58;;;;;;;41.40;26.57;;;;;;;6.46;68.29;95718.98;1756476;80;21531;-57
2020/12/31 02:02:25;;;;;;;37.88;25.27;;;;;;;6.54;68.04;95715.90;1774914;80;21389;-57
2020/12/31 02:04:53;;;;;;;46.43;27.23;;;;;;;6.67;68.01;95714.12;1777997;80;21489;-57
2020/12/31 02:07:21;;;;;;;43.87;25.20;;;;;;;6.80;67.77;95714.92;1779959;79;21537;-57
2020/12/31 02:09:49;;;;;;;39.90;26.85;;;;;;;6.94;67.47;95717.84;1764573;80;21172;-57
2020/12/31 02:12:16;;;;;;;42.98;25.88;;;;;;;7.07;67.04;95720.39;1794728;79;21471;-57
2020/12/31 02:14:51;;;;;;;40.25;25.35;;;;;;;7.18;66.73;95722.20;1768494;81;21367;-57
2020/12/31 02:17:19;;;;;;;39.27;25.45;;;;;;;7.19;66.50;95731.59;1765637;80;21574;-57
2020/12/31 02:19:47;;;;;;;41.60;26.45;;;;;;;7.15;66.84;95729.70;1792474;80;21085;-57
2020/12/31 02:22:16;;;;;;;;;;;;;;;7.17;67.06;95726.55;1794706;80;21628;-57
2020/12/31 02:24:43;;;;;;;38.28;25.60;;;;;;;7.25;67.13;95729.03;1782348;80;20214;-57
2020/12/31 02:27:11;;;;;;;37.50;23.50;;;;;;;7.28;67.19;95730.11;1776787;80;21370;-57
2020/12/31 02:29:38;;;;;;;38.00;23.77;;;;;;;7.33;66.78;95729.31;1777460;80;21652;-57
2020/12/31 02:32:07;;;;;;;35.05;23.98;;;;;;;7.40;66.61;95735.70;1760423;80;26976;-56
2020/12/31 02:34:35;;;;;;;38.88;25.02;;;;;;;7.44;66.57;95738.41;1746783;81;21095;-57
2020/12/31 02:37:03;;;;;;;38.40;24.40;;;;;;;7.41;66.95;95735.23;1778344;80;21065;-57
2020/12/31 02:39:31;;;;;;;37.63;24.43;;;;;;;7.39;67.20;95730.65;1778045;79;21417;-58
2020/12/31 02:41:58;;;;;;;34.13;21.75;;;;;;;7.40;67.49;95734.41;1769642;80;21327;-58
2020/12/31 02:44:26;;;;;;;33.65;21.87;;;;;;;7.48;67.59;95733.84;1787327;80;21065;-58
2020/12/31 02:46:53;;;;;;;33.92;22.13;;;;;;;7.53;67.53;95724.00;1763394;80;21070;-58
2020/12/31 02:49:21;;;;;;;38.38;24.63;;;;;;;7.54;67.53;95729.06;1780460;80;21661;-58
2020/12/31 02:51:48;;;;;;;38.80;24.52;;;;;;;7.55;67.70;95732.48;1747518;79;21414;-58
2020/12/31 02:54:16;;;;;;;37.90;26.00;;;;;;;7.58;67.61;95719.33;1770976;80;21074;-58
2020/12/31 02:56:44;;;;;;;37.35;24.80;;;;;;;7.55;67.44;95719.10;1770062;80;21045;-58
2020/12/31 02:59:12;;;;;;;40.65;25.75;;;;;;;7.37;67.59;95723.02;1787582;80;21127;-58
2020/12/31 03:01:40;;;;;;;35.08;22.75;;;;;;;7.22;68.20;95721.06;1766305;80;21598;-58
2020/12/31 03:04:08;;;;;;;32.65;22.30;;;;;;;7.18;68.57;95725.59;1781923;80;21209;-57
2020/12/31 03:06:35;;;;;;;30.88;20.97;;;;;;;7.17;68.75;95739.44;1786644;80;21529;-58
2020/12/31 03:09:04;;;;;;;31.87;21.75;;;;;;;7.14;68.89;95741.42;1777917;79;21045;-58
2020/12/31 03:11:31;;;;;;;32.40;22.67;;;;;;;7.10;69.04;95738.20;1746660;82;21126;-58
2020/12/31 03:13:59;;;;;;;36.65;23.62;;;;;;;7.10;69.29;95740.78;1756332;81;21165;-57
2020/12/31 03:16:27;;;;;;;35.50;23.25;;;;;;;7.07;69.38;95735.02;1756204;81;21405;-57
2020/12/31 03:18:55;;;;;;;33.53;23.87;;;;;;;6.99;69.45;95729.13;1777363;80;21098;-57
2020/12/31 03:21:22;;;;;;;36.03;23.38;;;;;;;6.98;69.63;95727.47;1785153;80;21116;-57
2020/12/31 03:23:50;;;;;;;35.92;22.32;;;;;;;7.02;69.74;95727.60;1777963;79;21109;-58
2020/12/31 03:26:17;;;;;;;34.55;22.60;;;;;;;7.11;69.66;95728.26;1768355;80;21056;-58
2020/12/31 03:28:46;;;;;;;41.23;25.10;;;;;;;7.21;69.52;95731.02;1787416;80;21368;-58
2020/12/31 03:31:13;;;;;;;42.40;27.82;;;;;;;7.33;69.55;95732.70;1771929;80;21932;-58
2020/12/31 03:33:41;;;;;;;40.65;27.52;;;;;;;7.41;69.26;95734.75;1766142;80;21146;-58
2020/12/31 03:36:09;;;;;;;40.97;25.97;;;;;;;7.45;69.11;95739.22;1775018;80;21145;-58
2020/12/31 03:38:37;;;;;;;41.17;26.87;;;;;;;7.48;69.00;95746.75;1761694;81;21116;-58
2020/12/31 03:41:05;;;;;;;40.48;26.30;;;;;;;7.52;68.88;95744.32;1740615;82;21205;-58
2020/12/31 03:43:33;;;;;;;35.70;22.82;;;;;;;7.52;68.74;95744.32;1759911;81;21999;-58
2020/12/31 03:46:01;;;;;;;37.95;25.02;;;;;;;7.52;68.64;95750.30;1723511;82;21125;-58
2020/12/31 03:48:28;;;;;;;36.17;24.45;;;;;;;7.46;68.67;95742.17;1748092;81;21148;-59
2020/12/31 03:50:56;;;;;;;38.55;24.27;;;;;;;7.41;68.96;95739.91;1748704;81;21070;-58
2020/12/31 03:53:25;;;;;;;36.80;22.98;;;;;;;7.44;69.15;95742.75;1731401;82;21221;-58
2020/12/31 03:55:52;;;;;;;38.42;23.85;;;;;;;7.52;69.15;95741.27;1748818;81;21591;-58
2020/12/31 03:58:20;;;;;;;43.38;25.75;;;;;;;7.58;69.03;95743.86;1732918;81;21184;-58
2020/12/31 04:00:47;;;;;;;35.45;25.02;;;;;;;7.64;69.00;95748.58;1754898;81;21071;-58
2020/12/31 04:03:17;;;;;;;37.63;24.30;;;;;;;7.63;68.64;95744.82;1749041;81;21058;-58
2020/12/31 04:05:45;;;;;;;37.03;25.43;;;;;;;7.53;68.70;95749.82;1740521;81;21360;-58
2020/12/31 04:08:13;;;;;;;37.40;25.77;;;;;;;7.45;68.97;95750.84;1731327;82;21170;-58
2020/12/31 04:10:41;;;;;;;36.40;24.47;;;;;;;7.47;69.10;95742.54;1748310;81;21580;-58
2020/12/31 04:13:09;;;;;;;41.05;25.10;;;;;;;7.48;69.04;95740.30;1760658;81;21181;-58
2020/12/31 04:15:37;;;;;;;36.68;22.90;;;;;;;7.48;69.09;95743.72;1758717;81;21178;-58
2020/12/31 04:18:05;;;;;;;37.15;22.25;;;;;;;7.53;69.11;95745.95;1750206;81;21635;-58
2020/12/31 04:20:34;;;;;;;35.52;23.12;;;;;;;7.57;69.07;95749.16;1731237;82;21172;-58
2020/12/31 04:23:01;;;;;;;;;;;;;;;7.61;69.08;95752.67;1733982;81;21110;-58
2020/12/31 04:25:29;;;;;;;34.27;22.30;;;;;;;7.65;68.96;95753.30;1748382;81;20554;-58
2020/12/31 04:27:56;;;;;;;30.17;21.87;;;;;;;7.61;68.89;95750.09;1737125;81;21106;-58
2020/12/31 04:30:24;;;;;;;33.28;20.68;;;;;;;7.60;68.99;95755.36;1733892;81;21714;-57
2020/12/31 04:32:55;;;;;;;36.68;22.17;;;;;;;7.59;69.19;95755.03;1756199;81;21145;-57
2020/12/31 04:35:22;;;;;;;36.77;23.65;;;;;;;7.57;69.43;95755.13;1769706;80;21193;-58
2020/12/31 04:37:50;;;;;;;28.50;19.07;;;;;;;7.47;69.50;95753.68;1760766;80;21084;-57
2020/12/31 04:40:18;;;;;;;34.48;21.87;;;;;;;7.40;69.93;95751.19;1772227;80;21057;-57
2020/12/31 04:42:48;;;;;;;37.90;24.50;;;;;;;7.30;70.38;95755.33;1822552;77;22526;-58
2020/12/31 04:45:15;;;;;;;39.92;26.65;;;;;;;7.26;70.63;95754.73;1773915;77;22013;-57
2020/12/31 04:47:46;;;;;;;34.23;22.00;;;;;;;7.17;70.85;95754.08;1794620;77;21092;-58
2020/12/31 04:50:13;;;;;;;37.10;23.42;;;;;;;7.16;71.13;95754.55;1819699;77;21909;-57
2020/12/31 04:52:41;;;;;;;34.00;22.48;;;;;;;7.23;71.11;95759.29;1818846;77;21108;-57
2020/12/31 04:55:09;;;;;;;30.90;20.40;;;;;;;7.32;70.93;95769.79;1830549;77;21628;-58
2020/12/31 04:57:36;;;;;;;34.88;22.67;;;;;;;7.38;70.82;95771.09;1816015;77;21490;-58
2020/12/31 05:00:04;;;;;;;33.75;23.35;;;;;;;7.34;70.74;95773.55;1813000;77;21040;-58
2020/12/31 05:02:32;;;;;;;33.60;22.02;;;;;;;7.32;70.77;95770.27;1814416;77;21186;-58
2020/12/31 05:05:03;;;;;;;31.62;21.20;;;;;;;7.39;70.71;95779.69;1823496;77;21105;-59
2020/12/31 05:07:32;;;;;;;26.55;15.85;;;;;;;7.45;70.65;95771.04;1848175;77;21132;-57
2020/12/31 05:10:12;;;;;;;23.55;16.02;;;;;;;7.49;70.72;95778.91;1839565;77;21140;-58
2020/12/31 05:12:39;;;;;;;;;;;;;;;7.39;70.95;95788.72;1841719;77;21565;-57
2020/12/31 05:15:08;;;;;;;23.57;15.60;;;;;;;7.29;71.32;95788.54;1818822;77;20216;-57
2020/12/31 05:17:35;;;;;;;21.48;15.58;;;;;;;7.24;71.54;95790.14;1817157;77;21117;-58
2020/12/31 05:20:16;;;;;;;30.30;18.57;;;;;;;7.22;71.58;95788.14;1823392;77;21375;-58
2020/12/31 05:22:43;;;;;;;30.10;19.12;;;;;;;7.24;71.63;95793.20;1827452;77;21553;-57
2020/12/31 05:25:10;;;;;;;30.48;20.23;;;;;;;7.34;71.49;95800.17;1818794;77;21109;-58
2020/12/31 05:27:38;;;;;;;22.17;13.68;;;;;;;7.46;71.36;95801.53;1793162;79;21498;-58
2020/12/31 05:30:08;;;;;;;25.60;18.03;;;;;;;7.52;71.15;95799.34;1824168;77;21037;-58
2020/12/31 05:32:37;;;;;;;29.27;19.15;;;;;;;7.54;70.99;95797.47;1817645;77;21576;-58
2020/12/31 05:35:17;;;;;;;29.65;20.97;;;;;;;7.60;70.81;95794.94;1824977;77;21056;-57
2020/12/31 05:37:44;;;;;;;31.37;21.42;;;;;;;7.69;70.61;95801.19;1819212;78;21055;-58
2020/12/31 05:40:13;;;;;;;36.93;23.80;;;;;;;7.76;70.35;95805.45;1826278;77;21140;-58
2020/12/31 05:42:43;;;;;;;32.13;22.95;;;;;;;7.79;70.01;95804.75;1841208;77;21119;-58
2020/12/31 05:45:18;;;;;;;;;;;;;;;7.83;69.76;95801.03;1828136;77;21446;-58
2020/12/31 05:47:53;;;;;;;29.18;20.08;;;;;;;7.84;69.58;95799.27;1846179;77;20229;-58
2020/12/31 05:50:26;;;;;;;32.20;19.02;;;;;;;7.87;69.51;95795.17;1845703;77;21128;-58
2020/12/31 05:52:54;;;;;;;26.95;18.55;;;;;;;7.91;69.48;95792.70;1846928;77;20977;-57
2020/12/31 05:55:24;;;;;;;21.73;13.85;;;;;;;7.92;69.33;95793.89;1821188;77;21129;-57
2020/12/31 05:57:55;;;;;;;20.45;11.88;;;;;;;7.90;69.30;95797.06;1845731;77;21037;-57
2020/12/31 06:00:25;;;;;;;18.85;12.30;;;;;;;7.89;69.37;95794.14;1765215;79;21116;-57
2020/12/31 06:03:00;;;;;;;26.23;14.75;;;;;;;7.91;69.31;95796.58;1778331;80;21577;-58
2020/12/31 06:05:29;;;;;;;21.20;13.80;;;;;;;7.90;69.21;95791.89;1780631;80;21074;-57
2020/12/31 06:07:57;;;;;;;17.05;12.23;;;;;;;7.88;69.20;95792.95;1783460;80;21065;-57
2020/12/31 06:10:29;;;;;;;22.95;16.05;;;;;;;7.83;69.23;95787.27;1757560;81;21189;-57
2020/12/31 06:13:01;;;;;;;18.77;12.18;;;;;;;7.82;69.26;95795.50;1787738;80;21081;-57
2020/12/31 06:15:36;;;;;;;21.50;14.03;;;;;;;7.84;69.27;95800.08;1787175;80;21200;-58
2020/12/31 06:18:06;;;;;;;21.62;14.23;;;;;;;7.83;69.32;95801.03;1760229;81;21047;-60
2020/12/31 06:20:38;;;;;;;21.57;14.87;;;;;;;7.77;69.42;95805.34;1747081;82;21497;-58
2020/12/31 06:23:12;;;;;;;22.13;15.15;;;;;;;7.71;69.48;95803.19;1751299;81;21381;-59
2020/12/31 06:25:46;;;;;;;20.08;14.38;;;;;;;7.61;69.78;95806.08;1791069;80;21112;-59
2020/12/31 06:28:20;;;;;;;21.75;13.85;;;;;;;7.58;69.99;95802.42;1786659;80;21069;-58
2020/12/31 06:30:53;;;;;;;24.67;17.40;;;;;;;7.59;70.00;95803.60;1776024;80;39015;-59
2020/12/31 06:33:28;;;;;;;21.45;14.98;;;;;;;7.65;69.88;95811.39;1778672;80;21124;-58
2020/12/31 06:36:00;;;;;;;29.72;18.15;;;;;;;7.59;69.96;95813.93;1763465;80;22326;-59
2020/12/31 06:38:41;;;;;;;33.92;25.25;;;;;;;7.48;70.36;95813.41;1761412;81;21498;-59
2020/12/31 06:41:34;;;;;;;23.62;18.98;;;;;;;7.42;70.66;95812.99;1760677;81;21149;-59
2020/12/31 06:44:12;;;;;;;39.25;26.48;;;;;;;7.40;70.72;95810.99;1744876;81;21558;-58
2020/12/31 06:46:46;;;;;;;42.45;29.60;;;;;;;7.38;70.51;95802.06;1759674;81;21139;-59
2020/12/31 06:49:14;;;;;;;36.17;23.38;;;;;;;7.32;70.49;95804.62;1750350;81;21561;-58
2020/12/31 06:51:42;;;;;;;30.48;19.98;;;;;;;7.33;70.60;95802.86;1731537;81;21120;-58
2020/12/31 06:54:11;;;;;;;26.90;19.45;;;;;;;7.38;70.60;95807.23;1731311;81;21160;-58
2020/12/31 06:56:47;;;;;;;32.38;21.27;;;;;;;7.37;70.63;95801.73;1758488;81;21152;-58
2020/12/31 06:59:35;;;;;;;30.75;21.10;;;;;;;7.45;70.57;95799.88;1761458;80;21057;-57
2020/12/31 07:02:14;;;;;;;35.28;22.50;;;;;;;7.56;70.43;95798.66;1761490;81;21494;-58
2020/12/31 07:04:41;;;;;;;43.55;28.73;;;;;;;7.68;70.24;95794.37;1731128;80;21568;-59
2020/12/31 07:07:26;;;;;;;40.28;27.10;;;;;;;7.79;69.99;95794.90;1753045;81;21635;-59
2020/12/31 07:09:59;;;;;;;39.38;25.88;;;;;;;7.86;69.71;95789.19;1761476;81;21096;-59
2020/12/31 07:12:45;;;;;;;47.60;31.95;;;;;;;7.95;69.36;95793.33;1760584;81;21052;-59
2020/12/31 07:15:12;;;;;;;37.93;25.50;;;;;;;7.92;69.04;95794.37;1732701;81;22313;-59
2020/12/31 07:17:47;;;;;;;23.83;17.10;;;;;;;7.77;69.20;95798.06;1761384;81;21160;-58
2020/12/31 07:20:18;;;;;;;20.92;13.55;;;;;;;7.59;69.43;95795.05;1760718;81;21132;-59
2020/12/31 07:22:48;;;;;;;20.85;14.28;;;;;;;7.39;69.98;95792.11;1742614;81;21534;-59
2020/12/31 07:25:18;;;;;;;24.70;16.05;;;;;;;7.34;70.39;95788.56;1732363;81;21478;-59
2020/12/31 07:27:49;;;;;;;25.95;17.32;;;;;;;7.39;70.69;95788.72;1761131;81;21305;-59
2020/12/31 07:30:20;;;;;;;20.62;12.90;;;;;;;7.52;70.68;95786.91;1761653;81;21518;-59
2020/12/31 07:33:04;;;;;;;21.42;13.60;;;;;;;7.64;70.29;95786.50;1761389;81;21084;-59
2020/12/31 07:35:49;;;;;;;17.00;12.43;;;;;;;7.68;70.17;95779.72;1722477;81;21469;-59
2020/12/31 07:38:16;;;;;;;14.15;9.80;;;;;;;7.81;70.01;95778.82;1705652;81;21088;-58
2020/12/31 07:40:53;;;;;;;15.08;10.55;;;;;;;7.90;69.51;95777.69;1744173;81;21135;-59
2020/12/31 07:43:25;;;;;;;13.97;9.93;;;;;;;7.92;69.50;95777.09;1731558;82;21584;-58
2020/12/31 07:45:57;;;;;;;15.48;10.43;;;;;;;7.91;69.18;95772.89;1732409;81;21409;-58
2020/12/31 07:48:26;;;;;;;17.10;10.75;;;;;;;7.75;69.63;95778.81;1741135;81;21504;-59
2020/12/31 07:51:01;;;;;;;19.52;12.98;;;;;;;7.52;70.15;95787.73;1731505;82;24196;-59
2020/12/31 07:53:30;;;;;;;21.00;13.22;;;;;;;7.41;70.95;95791.53;1755344;81;21341;-59
2020/12/31 07:55:58;;;;;;;21.67;11.90;;;;;;;7.47;71.30;95791.11;1760555;81;21068;-58
2020/12/31 07:58:28;;;;;;;15.90;11.55;;;;;;;7.61;71.01;95786.23;1757624;81;21088;-58
2020/12/31 08:01:03;;;;;;;13.80;10.95;;;;;;;7.77;70.68;95787.27;1776512;79;21119;-58
2020/12/31 08:03:33;;;;;;;14.83;9.75;;;;;;;7.89;70.34;95785.55;1777764;80;21538;-58
2020/12/31 08:06:03;;;;;;;14.58;10.55;;;;;;;7.88;70.13;95781.33;1768666;80;21148;-59
2020/12/31 08:08:34;;;;;;;16.45;10.35;;;;;;;7.85;70.20;95781.08;1772553;80;21124;-58
2020/12/31 08:11:10;;;;;;;15.32;9.43;;;;;;;7.82;70.35;95780.00;1775808;80;21099;-58
2020/12/31 08:13:37;;;;;;;15.63;10.55;;;;;;;7.82;70.48;95785.16;1734325;81;21092;-59
2020/12/31 08:16:08;;;;;;;21.30;15.13;;;;;;;7.70;70.79;95779.13;1745601;81;21056;-58
2020/12/31 08:18:35;;;;;;;21.68;13.98;;;;;;;7.59;71.32;95787.30;1761419;81;21430;-58
2020/12/31 08:21:05;;;;;;;14.75;9.90;;;;;;;7.50;71.82;95787.02;1705240;81;21064;-59
2020/12/31 08:23:38;;;;;;;14.78;8.98;;;;;;;7.50;72.29;95789.60;1747098;81;21128;-58
2020/12/31 08:26:10;;;;;;;10.20;7.65;;;;;;;7.48;72.45;95789.34;1737596;81;21575;-59
2020/12/31 08:28:38;;;;;;;11.25;8.05;;;;;;;7.43;72.99;95783.20;1742270;81;21071;-58
2020/12/31 08:31:15;;;;;;;11.25;8.35;;;;;;;7.37;73.34;95781.08;1740857;81;21453;-58
2020/12/31 08:33:43;;;;;;;10.68;8.00;;;;;;;7.32;73.60;95778.82;1730021;81;21144;-58
2020/12/31 08:36:11;;;;;;;12.70;8.00;;;;;;;7.32;73.58;95781.40;1731250;82;21121;-58
2020/12/31 08:38:39;;;;;;;12.88;8.13;;;;;;;7.32;73.52;95772.84;1777882;80;21168;-58
2020/12/31 08:41:09;;;;;;;11.63;8.00;;;;;;;7.34;73.52;95770.50;1777406;80;21085;-59
2020/12/31 08:43:40;;;;;;;13.38;8.73;;;;;;;7.43;73.53;95772.06;1777826;80;21355;-58
2020/12/31 08:46:11;;;;;;;12.82;9.03;;;;;;;7.51;73.48;95769.29;1777972;80;21494;-58
2020/12/31 08:48:40;;;;;;;15.60;9.25;;;;;;;7.62;73.14;95769.83;1772441;80;21121;-57
2020/12/31 08:51:14;;;;;;;14.38;9.73;;;;;;;7.68;73.08;95772.42;1760149;80;21078;-57
2020/12/31 08:53:58;;;;;;;10.80;8.58;;;;;;;7.78;73.00;95770.84;1794538;79;21113;-58
2020/12/31 08:56:33;;;;;;;13.38;9.43;;;;;;;7.88;72.73;95773.11;1738713;82;21203;-59
2020/12/31 08:59:12;;;;;;;16.85;9.70;;;;;;;7.99;72.53;95773.59;1777588;80;21110;-58
2020/12/31 09:01:45;;;;;;;15.70;9.83;;;;;;;8.15;72.16;95773.78;1787437;80;21125;-58
2020/12/31 09:04:18;;;;;;;15.05;9.15;;;;;;;8.24;72.12;95764.88;1786112;79;21053;-57
2020/12/31 09:06:48;;;;;;;12.68;8.98;;;;;;;8.33;71.49;95760.78;1768962;80;21053;-57
2020/12/31 09:09:23;;;;;;;15.13;9.73;;;;;;;8.32;71.37;95766.88;1769631;80;21193;-58
2020/12/31 09:12:09;;;;;;;14.25;9.15;;;;;;;8.19;71.35;95765.70;1777675;80;21120;-58
2020/12/31 09:14:56;;;;;;;13.75;8.48;;;;;;;8.08;71.92;95765.18;1779583;80;21617;-60
2020/12/31 09:17:24;;;;;;;10.18;7.75;;;;;;;8.07;71.86;95762.71;1778026;79;21094;-59
2020/12/31 09:19:55;;;;;;;9.58;7.95;;;;;;;8.09;72.13;95753.08;1768081;80;21494;-61
2020/12/31 09:22:29;;;;;;;12.30;8.53;;;;;;;8.17;72.18;95750.75;1780554;80;21201;-61
2020/12/31 09:24:56;;;;;;;10.08;6.90;;;;;;;8.14;72.51;95748.87;1731754;81;21015;-60
2020/12/31 09:27:31;;;;;;;9.85;6.60;;;;;;;7.99;72.63;95760.68;1756051;81;21112;-63
2020/12/31 09:30:00;;;;;;;8.75;6.65;;;;;;;7.73;73.34;95756.16;1750556;80;21209;-61
2020/12/31 09:32:53;;;;;;;7.55;5.62;;;;;;;7.49;73.94;95751.80;1760808;80;21092;-64
2020/12/31 09:35:21;;;;;;;9.45;6.62;;;;;;;7.31;74.46;95740.22;1786550;79;21522;-62
2020/12/31 09:37:52;;;;;;;;;;;;;;;7.10;75.35;95736.10;1821870;77;21094;-62
2020/12/31 09:40:25;;;;;;;10.28;6.25;;;;;;;6.97;76.34;95724.08;1827709;77;20490;-64
2020/12/31 09:42:56;;;;;;;10.85;6.00;;;;;;;6.89;76.53;95726.81;1793629;78;21061;-62
2020/12/31 09:45:25;;;;;;;9.40;5.92;;;;;;;6.79;76.86;95727.47;1815748;78;21045;-62
2020/12/31 09:47:52;;;;;;;8.65;5.92;;;;;;;6.76;77.24;95721.68;1817108;78;21355;-60
2020/12/31 09:50:20;;;;;;;7.17;5.30;;;;;;;6.77;77.35;95720.28;1821087;78;21093;-61
2020/12/31 09:52:48;;;;;;;6.95;4.87;;;;;;;6.75;77.26;95720.86;1821122;77;21315;-61
2020/12/31 09:55:18;;;;;;;6.45;5.15;;;;;;;6.80;77.34;95716.69;1820240;77;21089;-61
2020/12/31 09:57:45;;;;;;;6.55;5.35;;;;;;;6.85;77.26;95710.73;1827452;77;21021;-61
2020/12/31 10:00:13;;;;;;;8.70;5.03;;;;;;;6.91;77.16;95700.00;1846339;77;22569;-61
2020/12/31 10:02:40;;;;;;;6.35;4.37;;;;;;;6.99;77.44;95696.89;1847557;77;21197;-61
2020/12/31 10:05:10;;;;;;;6.03;4.78;;;;;;;7.07;77.02;95699.75;1848960;77;21057;-60
2020/12/31 10:07:37;;;;;;;;;;;;;;;7.08;77.41;95696.23;1828203;77;21489;-60
2020/12/31 10:10:05;;;;;;;6.87;5.30;;;;;;;7.07;77.41;95700.20;1824244;77;20219;-63
2020/12/31 10:12:35;;;;;;;7.83;5.20;;;;;;;7.00;77.37;95693.36;1833875;77;21429;-61
2020/12/31 10:15:05;;;;;;;8.10;5.00;;;;;;;6.83;77.54;95692.45;1791357;79;21125;-58
2020/12/31 10:17:32;;;;;;;7.35;5.20;;;;;;;6.66;78.50;95684.58;1753102;81;21144;-58
2020/12/31 10:20:01;;;;;;;7.75;5.50;;;;;;;6.57;78.79;95680.90;1799934;79;21995;-57
2020/12/31 10:22:29;;;;;;;8.38;5.15;;;;;;;6.55;79.00;95684.88;1784711;79;21175;-58
2020/12/31 10:24:57;;;;;;;9.15;5.80;;;;;;;6.66;78.84;95684.58;1818567;79;21196;-58
2020/12/31 10:27:24;;;;;;;8.05;5.25;;;;;;;6.73;78.62;95676.33;1818494;78;21497;-58
2020/12/31 10:29:52;;;;;;;7.62;5.15;;;;;;;6.84;77.89;95672.16;1818530;77;21083;-58
2020/12/31 10:32:20;;;;;;;8.23;5.50;;;;;;;6.90;77.81;95660.95;1844984;77;21144;-58
2020/12/31 10:34:48;;;;;;;8.98;5.78;;;;;;;7.02;77.73;95665.70;1832811;77;21145;-58
2020/12/31 10:37:16;;;;;;;6.95;5.42;;;;;;;7.08;77.19;95661.88;1827478;77;21355;-57
2020/12/31 10:39:44;;;;;;;9.13;5.70;;;;;;;7.13;77.08;95657.20;1833476;77;21208;-57
2020/12/31 10:42:12;;;;;;;8.65;5.40;;;;;;;7.25;77.02;95649.05;1775776;80;21150;-58
2020/12/31 10:44:41;;;;;;;8.40;5.08;;;;;;;7.43;76.60;95646.41;1762527;80;21671;-58
2020/12/31 10:47:08;;;;;;;;;;;;;;;7.62;75.86;95636.05;1792958;79;21137;-58
2020/12/31 10:49:36;;;;;;;7.37;5.42;;;;;;;7.73;74.99;95630.92;1790904;79;21047;-56
2020/12/31 10:52:07;;;;;;;9.85;5.70;;;;;;;7.77;74.83;95623.28;1793490;79;21864;-52
2020/12/31 10:54:35;;;;;;;8.73;5.30;;;;;;;7.84;74.28;95612.83;1795010;79;21080;-56
2020/12/31 10:57:04;;;;;;;6.17;4.95;;;;;;;7.92;74.45;95602.75;1802532;79;21062;-57
2020/12/31 10:59:31;;;;;;;6.90;4.25;;;;;;;8.16;74.05;95604.42;1782974;79;21140;-59
2020/12/31 11:01:59;;;;;;;6.17;4.47;;;;;;;8.52;73.40;95596.53;1793117;79;21379;-57
2020/12/31 11:04:26;;;;;;;5.62;4.03;;;;;;;8.97;72.33;95591.27;1750363;81;21113;-63
2020/12/31 11:06:54;;;;;;;4.92;4.30;;;;;;;9.46;70.28;95595.06;1752656;80;21572;-59
2020/12/31 11:09:22;;;;;;;5.25;3.92;;;;;;;9.83;69.57;95587.30;1769849;80;21215;-59
2020/12/31 11:11:49;;;;;;;6.47;4.20;;;;;;;10.10;67.67;95583.70;1768587;80;21128;-57
2020/12/31 11:14:17;;;;;;;6.97;4.22;;;;;;;10.21;67.16;95577.58;1771832;80;21150;-64
2020/12/31 11:16:51;;;;;;;7.40;3.52;;;;;;;10.27;66.90;95572.36;1805309;79;21126;-58
2020/12/31 11:19:21;;;;;;;5.15;3.87;;;;;;;10.29;66.22;95577.75;1775696;79;21494;-58
2020/12/31 11:21:49;;;;;;;5.12;3.52;;;;;;;10.16;66.13;95572.45;1756364;80;21176;-59
2020/12/31 11:24:17;;;;;;;20.30;15.68;;;;;;;9.95;66.66;95570.27;1774071;80;21483;-58
2020/12/31 11:26:45;;;;;;;4.37;3.60;;;;;;;9.86;66.93;95566.33;1760479;80;21374;-58
2020/12/31 11:29:13;;;;;;;4.85;3.98;;;;;;;9.80;67.28;95563.76;1754934;80;21133;-60
2020/12/31 11:31:40;;;;;;;4.12;3.45;;;;;;;9.70;67.15;95566.33;1757538;80;21200;-59
2020/12/31 11:34:10;;;;;;;5.62;3.98;;;;;;;9.57;67.51;95558.75;1795811;79;21612;-59
2020/12/31 11:36:45;;;;;;;5.40;4.03;;;;;;;9.58;67.66;95557.78;1765757;80;21113;-55
2020/12/31 11:39:14;;;;;;;5.10;4.12;;;;;;;9.62;67.77;95551.90;1766989;81;21401;-54
2020/12/31 11:41:41;;;;;;;6.67;5.00;;;;;;;9.61;67.65;95546.36;1761287;80;21156;-53
2020/12/31 11:44:09;;;;;;;4.55;4.05;;;;;;;9.57;67.53;95541.92;1756220;81;21062;-54